Flight Track Log - Related Links

Times and Time Zones

All times are in EDT time to prevent confusion due to time zone crossing. See the N53NW flight status page for this flight to view local times or setup timezone preferences in your user account.

Time Position Orientation Groundspeed Altitude Reporting Facility
EDT Latitude Longitude Course Direction KTS MPH feet Rate Location/Type
Mon 03:31:43 PM 40.0500 -86.2500 27° Northeast 168 193 1,500  Level Indianapolis TRACON
Mon 03:33:01 PM 40.1000 -86.2167 27° Northeast 229 264 4,800 2,720 Climbing Indianapolis TRACON
Mon 03:34:13 PM 40.0833 -86.1167 102° East 255 293 8,300 2,978 Climbing Indianapolis TRACON
Mon 03:35:16 PM 40.0569 -86.0117 108° East 267 307 11,500 2,640 Climbing Indianapolis Center
Mon 03:36:18 PM 40.0308 -85.8953 106° East 327 376 13,800 2,516 Climbing Indianapolis Center
Mon 03:37:20 PM 40.0022 -85.7708 107° East 353 406 16,700 2,613 Climbing Indianapolis Center
Mon 03:38:22 PM 39.9972 -85.6411 93° East 362 417 19,200 2,468 Climbing Indianapolis Center
Mon 03:39:24 PM 40.0069 -85.5133 84° East 357 411 21,800 2,274 Climbing Indianapolis Center
Mon 03:40:26 PM 40.0158 -85.3822 85° East 364 419 23,900 1,561 Climbing Indianapolis Center
Mon 03:41:27 PM 40.0253 -85.2475 85° East 372 428 25,000 1,122 Climbing Indianapolis Center
Mon 03:42:29 PM 40.0369 -85.0819 85° East 382 440 26,200 1,548 Climbing Indianapolis Center
Mon 03:43:31 PM 40.0458 -84.9461 85° East 379 436 28,200 1,355 Climbing Indianapolis Center
Mon 03:44:33 PM 40.0550 -84.8150 85° East 378 435 29,000 387 Climbing Indianapolis Center
Mon 03:45:35 PM 40.0647 -84.6728 85° East 388 447 29,000  Level Indianapolis Center
Mon 03:46:37 PM 40.0731 -84.5300 86° East 391 450 29,000  Level Indianapolis Center
Mon 03:47:39 PM 40.0844 -84.3625 85° East 393 452 29,000  Level Indianapolis Center
Mon 03:48:41 PM 40.0939 -84.2200 85° East 391 450 29,000  Level Indianapolis Center
Mon 03:49:43 PM 40.1014 -84.0775 86° East 389 448 29,000  Level Indianapolis Center
Mon 03:50:45 PM 40.1097 -83.9350 86° East 389 448 29,000  Level Indianapolis Center
Mon 03:51:46 PM 40.1183 -83.7936 85° East 386 444 29,000  Level Indianapolis Center
Mon 03:52:48 PM 40.1258 -83.6536 86° East 381 438 29,000 -48 Level Indianapolis Center
Mon 03:53:50 PM 40.1344 -83.5128 85° East 382 440 28,900  Descending Indianapolis Center
Mon 03:54:52 PM 40.1419 -83.3725 86° East 381 438 29,000 48 Climbing Indianapolis Center
Mon 03:55:54 PM 40.1497 -83.2303 86° East 385 443 29,000 -629 Level Indianapolis Center
Mon 03:56:56 PM 40.1569 -83.0894 86° East 384 442 27,700 -1,355 Descending Indianapolis Center
Mon 03:57:58 PM 40.1642 -82.9461 86° East 389 448 26,200 -1,512 Descending Indianapolis Center
Mon 03:58:59 PM 40.1725 -82.7789 86° East 391 450 24,600 -1,463 Descending Indianapolis Center
Mon 04:00:01 PM 40.1792 -82.6381 86° East 388 447 23,200 -774 Descending Indianapolis Center
Mon 04:01:03 PM 40.1864 -82.5011 86° East 376 433 23,000 -97 Descending Indianapolis Center
Mon 04:02:05 PM 40.1922 -82.3642 87° East 375 432 23,000 -532 Level Indianapolis Center
Mon 04:03:07 PM 40.1986 -82.2294 86° East 369 425 21,900 -1,210 Descending Indianapolis Center
Mon 04:04:09 PM 40.2044 -82.0922 87° East 373 429 20,500 -1,355 Descending Indianapolis Center
Mon 04:05:11 PM 40.2106 -81.9556 87° East 374 430 19,100 -726 Descending Indianapolis Center
Mon 04:06:13 PM 40.2167 -81.8222 87° East 366 421 19,000 -48 Descending Indianapolis Center
Mon 04:07:15 PM 40.2214 -81.6903 87° East 353 406 19,000  Level Indianapolis Center
Mon 04:08:09 PM 40.2275 -81.5728 86° East 346 398 19,000  Level Cleveland Center
Mon 04:09:09 PM 40.2222 -81.4506 93° East 346 398 19,000 -550 Level Cleveland Center
Mon 04:10:09 PM 40.2086 -81.3225 98° East 346 398 17,900 -1,200 Descending Cleveland Center
Mon 04:11:09 PM 40.1947 -81.1972 98° East 352 405 16,600 -1,400 Descending Cleveland Center
Mon 04:12:09 PM 40.1786 -81.0775 100° East 346 398 15,100 -1,500 Descending Cleveland Center
Mon 04:13:09 PM 40.1667 -80.9606 98° East 339 390 13,600 -1,500 Descending Cleveland Center
Mon 04:14:09 PM 40.1522 -80.8467 99° East 328 377 12,100 -2,050 Descending Cleveland Center
Mon 04:15:09 PM 40.1858 -80.7489 66° East 298 343 9,500 -2,750 Descending Cleveland Center
Mon 04:16:09 PM 40.2111 -80.6511 71° East 285 328 6,600 -2,250 Descending Cleveland Center
Mon 04:17:09 PM 40.2319 -80.5642 73° East 266 306 5,000 -800 Descending Cleveland Center
Mon 04:18:09 PM 40.2464 -80.4825 77° East 247 284 5,000 -450 Level Cleveland Center
Mon 04:19:09 PM 40.2631 -80.4008 75° East 232 267 4,100 -1,000 Descending Cleveland Center
Mon 04:20:09 PM 40.2794 -80.3244 74° East 221 254 3,000 -550 Descending Cleveland Center
Mon 04:21:09 PM 40.2939 -80.2483 76° East 216 249 3,000  Level Cleveland Center
Mon 04:22:09 PM 40.3125 -80.1692 73° East 211 243 3,000  Level Cleveland Center
Mon 04:24:00 PM 40.4500 -80.1191 90° East  Level FlightAware Approximate
Mon 04:31:00 PM 40.3544 -79.9302 123° Southeast  Level Estimated
Mon 04:32:00 PM 40.3544 -79.9302 123° Southeast  Level Estimated
Mon 04:33:00 PM 40.3544 -79.9302 123° Southeast  Level Estimated
Mon 04:34:00 PM 40.3544 -79.9302 123° Southeast  Level Estimated

Login

Don't have an account? Register now (free) for customized features, flight alerts, and more!